Time;durP1;ratioP1;P1;durP2;ratioP2;P2;SDS_P1;SDS_P2;PMS_P1;PMS_P2;Temp;Humidity;BMP_temperature;BMP_pressure;BME280_temperature;BME280_humidity;BME280_pressure;Samples;Min_cycle;Max_cycle;Signal;HPM_P1;HPM_P2
2021/07/12 00:01:24;;;;;;;4.70;4.40;;;;;;;;;;5091182;28;24768;-56
2021/07/12 00:03:49;;;;;;;4.95;4.65;;;;;;;;;;5078962;28;24494;-56
2021/07/12 00:06:15;;;;;;;5.05;4.75;;;;;;;;;;5074070;28;24702;-56
2021/07/12 00:08:40;;;;;;;5.00;4.70;;;;;;;;;;5090557;28;25077;-55
2021/07/12 00:11:05;;;;;;;4.55;4.25;;;;;;;;;;5092254;28;24481;-56
2021/07/12 00:13:30;;;;;;;4.73;4.43;;;;;;;;;;5075969;28;24418;-56
2021/07/12 00:15:55;;;;;;;5.20;4.83;;;;;;;;;;5074425;28;24579;-57
2021/07/12 00:18:20;;;;;;;4.70;4.40;;;;;;;;;;5081854;28;24422;-56
2021/07/12 00:20:45;;;;;;;4.10;3.90;;;;;;;;;;5083226;28;24986;-56
2021/07/12 00:23:11;;;;;;;5.20;4.50;;;;;;;;;;5084962;28;25142;-56
2021/07/12 00:25:36;;;;;;;5.88;4.90;;;;;;;;;;5093802;28;24418;-56
2021/07/12 00:28:01;;;;;;;4.80;4.50;;;;;;;;;;5092596;28;25086;-56
2021/07/12 00:30:27;;;;;;;5.10;4.80;;;;;;;;;;5096384;28;24426;-55
2021/07/12 00:32:56;;;;;;;4.82;4.53;;;;;;;;;;5082741;28;24488;-56
2021/07/12 00:35:22;;;;;;;4.85;4.55;;;;;;;;;;5080830;28;24434;-56
2021/07/12 00:37:47;;;;;;;4.43;4.18;;;;;;;;;;5079414;28;24476;-56
2021/07/12 00:40:14;;;;;;;4.20;3.90;;;;;;;;;;5080377;28;25080;-56
2021/07/12 00:42:39;;;;;;;3.90;3.70;;;;;;;;;;5077175;28;24433;-56
2021/07/12 00:45:06;;;;;;;4.37;4.17;;;;;;;;;;5077754;28;25032;-56
2021/07/12 00:47:31;;;;;;;5.15;4.85;;;;;;;;;;5085525;28;24405;-56
2021/07/12 00:49:56;;;;;;;5.10;4.80;;;;;;;;;;5081801;28;24422;-56
2021/07/12 00:52:22;;;;;;;4.75;4.45;;;;;;;;;;5085906;28;24555;-56
2021/07/12 00:54:47;;;;;;;4.30;4.00;;;;;;;;;;5084475;28;24952;-56
2021/07/12 00:57:12;;;;;;;5.10;4.70;;;;;;;;;;5089285;28;24422;-56
2021/07/12 00:59:37;;;;;;;4.57;4.27;;;;;;;;;;5094093;28;24463;-56
2021/07/12 01:02:03;;;;;;;4.80;4.50;;;;;;;;;;5087348;28;24422;-56
2021/07/12 01:04:29;;;;;;;4.57;4.30;;;;;;;;;;5082517;28;24459;-56
2021/07/12 01:06:54;;;;;;;5.00;4.70;;;;;;;;;;5082781;28;24415;-55
2021/07/12 01:09:19;;;;;;;4.73;4.43;;;;;;;;;;5085876;28;24855;-56
2021/07/12 01:11:52;;;;;;;4.38;4.18;;;;;;;;;;5086454;28;24837;-56
2021/07/12 01:14:20;;;;;;;4.50;4.30;;;;;;;;;;5073668;28;24580;-56
2021/07/12 01:17:00;;;;;;;4.13;3.83;;;;;;;;;;5067210;28;24639;-56
2021/07/12 01:19:25;;;;;;;4.20;3.90;;;;;;;;;;5083277;28;24765;-55
2021/07/12 01:22:09;;;;;;;5.00;4.60;;;;;;;;;;5078899;28;24956;-55
2021/07/12 01:24:53;;;;;;;4.35;4.05;;;;;;;;;;5075399;28;24537;-56
2021/07/12 01:27:30;;;;;;;5.00;4.70;;;;;;;;;;5086705;28;24513;-56
2021/07/12 01:30:10;;;;;;;4.80;4.50;;;;;;;;;;5072450;28;24434;-56
2021/07/12 01:32:44;;;;;;;4.65;4.30;;;;;;;;;;5079890;28;24441;-56
2021/07/12 01:35:14;;;;;;;5.15;4.80;;;;;;;;;;5093166;28;24414;-55
2021/07/12 01:37:45;;;;;;;5.43;5.03;;;;;;;;;;5080287;28;24425;-55
2021/07/12 01:40:46;;;;;;;4.95;4.65;;;;;;;;;;5084664;28;24416;-56
2021/07/12 01:43:25;;;;;;;5.10;4.80;;;;;;;;;;5041458;28;24503;-56
2021/07/12 01:46:10;;;;;;;5.25;4.95;;;;;;;;;;5082667;28;24507;-56
2021/07/12 01:48:54;;;;;;;5.75;5.35;;;;;;;;;;5079533;28;24419;-56
2021/07/12 01:51:23;;;;;;;4.90;4.60;;;;;;;;;;5081060;28;24452;-56
2021/07/12 01:53:55;;;;;;;4.90;4.50;;;;;;;;;;5094743;28;24502;-56
2021/07/12 01:56:39;;;;;;;5.63;4.80;;;;;;;;;;5092685;28;24562;-56
2021/07/12 01:59:07;;;;;;;5.50;5.10;;;;;;;;;;5093765;28;24582;-55
2021/07/12 02:01:34;;;;;;;4.90;4.50;;;;;;;;;;5094683;28;24422;-55
2021/07/12 02:04:00;;;;;;;5.70;5.10;;;;;;;;;;5088582;28;24441;-55
2021/07/12 02:06:25;;;;;;;5.60;5.22;;;;;;;;;;5093291;28;24427;-56
2021/07/12 02:08:51;;;;;;;5.20;4.80;;;;;;;;;;5075800;28;24422;-56
2021/07/12 02:11:17;;;;;;;4.78;4.43;;;;;;;;;;5079679;28;24835;-55
2021/07/12 02:13:44;;;;;;;5.50;5.00;;;;;;;;;;5089606;28;24924;-55
2021/07/12 02:16:10;;;;;;;6.10;5.60;;;;;;;;;;5097983;28;25075;-56
2021/07/12 02:18:35;;;;;;;5.90;5.50;;;;;;;;;;5086083;28;24505;-56
2021/07/12 02:21:01;;;;;;;5.87;5.47;;;;;;;;;;5085540;28;24407;-56
2021/07/12 02:23:27;;;;;;;6.15;5.65;;;;;;;;;;5095132;28;25092;-56
2021/07/12 02:25:52;;;;;;;6.07;5.47;;;;;;;;;;5077781;28;24448;-56
2021/07/12 02:28:18;;;;;;;6.53;6.03;;;;;;;;;;5072062;28;24438;-56
2021/07/12 02:30:44;;;;;;;6.30;5.80;;;;;;;;;;5079065;28;25000;-56
2021/07/12 02:33:09;;;;;;;6.63;5.70;;;;;;;;;;5101407;28;24517;-56
2021/07/12 02:35:35;;;;;;;6.60;6.20;;;;;;;;;;5092310;28;24443;-56
2021/07/12 02:38:00;;;;;;;6.47;5.97;;;;;;;;;;5074237;28;24411;-55
2021/07/12 02:40:26;;;;;;;6.93;6.23;;;;;;;;;;5084185;28;24534;-56
2021/07/12 02:42:53;;;;;;;6.20;5.80;;;;;;;;;;5086635;28;24822;-56
2021/07/12 02:45:19;;;;;;;6.10;5.50;;;;;;;;;;5095865;28;24475;-56
2021/07/12 02:47:44;;;;;;;5.97;5.50;;;;;;;;;;5095514;28;24451;-55
2021/07/12 02:50:10;;;;;;;6.27;5.87;;;;;;;;;;5077723;28;24991;-56
2021/07/12 02:52:42;;;;;;;6.25;5.85;;;;;;;;;;5086782;28;24434;-56
2021/07/12 02:55:08;;;;;;;6.80;6.30;;;;;;;;;;5073698;28;24976;-56
2021/07/12 02:57:33;;;;;;;6.33;5.93;;;;;;;;;;5079851;28;24422;-56
2021/07/12 02:59:58;;;;;;;6.90;6.20;;;;;;;;;;5090351;28;24418;-57
2021/07/12 03:02:23;;;;;;;6.20;5.80;;;;;;;;;;5093315;28;24950;-56
2021/07/12 03:04:48;;;;;;;5.50;5.20;;;;;;;;;;5086237;28;24463;-56
2021/07/12 03:07:31;;;;;;;6.70;6.20;;;;;;;;;;5086729;28;24425;-56
2021/07/12 03:09:59;;;;;;;7.00;6.30;;;;;;;;;;5083055;28;24425;-56
2021/07/12 03:12:31;;;;;;;6.80;6.30;;;;;;;;;;5087762;28;24976;-55
2021/07/12 03:15:10;;;;;;;5.88;5.43;;;;;;;;;;5084487;28;24504;-55
2021/07/12 03:17:39;;;;;;;5.50;5.10;;;;;;;;;;5105104;28;24426;-55
2021/07/12 03:20:05;;;;;;;5.50;5.10;;;;;;;;;;5079290;28;24777;-55
2021/07/12 03:22:31;;;;;;;5.10;4.80;;;;;;;;;;5082229;28;24429;-56
2021/07/12 03:24:57;;;;;;;6.25;5.65;;;;;;;;;;5065327;28;24971;-55
2021/07/12 03:27:23;;;;;;;6.70;6.20;;;;;;;;;;5086193;28;25024;-56
2021/07/12 03:29:48;;;;;;;6.27;5.87;;;;;;;;;;5099570;28;24459;-55
2021/07/12 03:32:16;;;;;;;7.10;6.53;;;;;;;;;;5091252;28;24539;-56
2021/07/12 03:34:41;;;;;;;5.80;5.40;;;;;;;;;;5079613;28;24898;-56
2021/07/12 03:37:07;;;;;;;6.67;6.17;;;;;;;;;;5080522;28;24429;-56
2021/07/12 03:39:32;;;;;;;6.47;5.97;;;;;;;;;;5083122;28;24764;-56
2021/07/12 03:41:58;;;;;;;7.53;7.00;;;;;;;;;;5070817;28;25144;-57
2021/07/12 03:44:23;;;;;;;6.80;6.30;;;;;;;;;;5085793;28;24530;-56
2021/07/12 03:46:48;;;;;;;6.33;5.93;;;;;;;;;;5075128;28;24453;-56
2021/07/12 03:49:16;;;;;;;6.43;5.93;;;;;;;;;;5079399;28;25023;-56
2021/07/12 03:51:41;;;;;;;6.35;5.95;;;;;;;;;;5090000;28;24991;-56
2021/07/12 03:54:07;;;;;;;6.43;5.90;;;;;;;;;;5082333;28;24469;-56
2021/07/12 03:56:33;;;;;;;6.70;6.20;;;;;;;;;;5079725;28;24453;-56
2021/07/12 03:58:58;;;;;;;6.85;6.35;;;;;;;;;;5073600;28;24426;-56
2021/07/12 04:01:23;;;;;;;6.70;6.30;;;;;;;;;;5093224;28;24451;-56
2021/07/12 04:03:49;;;;;;;6.60;6.20;;;;;;;;;;5075250;28;24542;-56
2021/07/12 04:06:15;;;;;;;6.30;6.00;;;;;;;;;;5067868;28;24417;-56
2021/07/12 04:08:40;;;;;;;6.50;6.10;;;;;;;;;;5068326;28;24414;-55
2021/07/12 04:11:05;;;;;;;7.20;6.60;;;;;;;;;;5068089;28;24490;-55
2021/07/12 04:13:30;;;;;;;7.30;6.90;;;;;;;;;;5066939;28;24450;-56
2021/07/12 04:15:56;;;;;;;7.68;7.18;;;;;;;;;;5065691;28;24471;-57
2021/07/12 04:18:21;;;;;;;7.53;6.93;;;;;;;;;;5074165;28;24450;-56
2021/07/12 04:20:47;;;;;;;7.40;6.90;;;;;;;;;;5081740;28;24421;-56
2021/07/12 04:23:12;;;;;;;8.43;7.83;;;;;;;;;;5090942;28;25230;-58
2021/07/12 04:25:37;;;;;;;7.82;7.10;;;;;;;;;;5094119;28;24401;-56
2021/07/12 04:28:02;;;;;;;10.90;10.00;;;;;;;;;;5068505;28;24411;-55
2021/07/12 04:30:27;;;;;;;8.03;7.37;;;;;;;;;;5075493;28;25101;-56
2021/07/12 04:32:52;;;;;;;9.55;8.85;;;;;;;;;;5082277;28;20769;-56
2021/07/12 04:35:18;;;;;;;10.63;9.63;;;;;;;;;;5073046;28;24430;-56
2021/07/12 04:37:43;;;;;;;9.50;8.70;;;;;;;;;;5071368;28;24418;-56
2021/07/12 04:40:09;;;;;;;8.50;7.80;;;;;;;;;;5096651;28;24772;-56
2021/07/12 04:42:34;;;;;;;9.10;8.40;;;;;;;;;;5086908;28;24770;-56
2021/07/12 04:45:01;;;;;;;8.65;7.95;;;;;;;;;;5089256;28;24441;-56
2021/07/12 04:47:27;;;;;;;8.27;7.68;;;;;;;;;;5094030;28;24417;-56
2021/07/12 04:49:52;;;;;;;8.55;7.85;;;;;;;;;;5099170;28;24772;-56
2021/07/12 04:52:17;;;;;;;8.60;7.90;;;;;;;;;;5104137;28;24421;-56
2021/07/12 04:54:42;;;;;;;8.27;7.67;;;;;;;;;;5093931;28;25050;-56
2021/07/12 04:57:07;;;;;;;9.90;9.00;;;;;;;;;;5084082;28;24382;-56
2021/07/12 04:59:38;;;;;;;8.00;7.40;;;;;;;;;;5093627;28;24559;-57
2021/07/12 05:02:04;;;;;;;8.93;8.32;;;;;;;;;;5099692;28;24509;-56
2021/07/12 05:04:29;;;;;;;9.05;8.45;;;;;;;;;;5087423;28;24504;-55
2021/07/12 05:06:54;;;;;;;10.05;9.35;;;;;;;;;;5101809;28;24496;-55
2021/07/12 05:09:19;;;;;;;9.90;8.93;;;;;;;;;;5094762;28;24878;-56
2021/07/12 05:11:44;;;;;;;10.77;9.98;;;;;;;;;;5087143;28;24517;-56
2021/07/12 05:14:10;;;;;;;9.68;8.88;;;;;;;;;;5094508;28;24426;-56
2021/07/12 05:16:35;;;;;;;9.70;8.90;;;;;;;;;;5085483;28;24493;-56
2021/07/12 05:19:00;;;;;;;10.35;9.45;;;;;;;;;;5068836;28;24449;-56
2021/07/12 05:21:28;;;;;;;9.93;9.23;;;;;;;;;;5072746;28;24422;-57
2021/07/12 05:23:53;;;;;;;10.13;9.33;;;;;;;;;;5080732;28;24477;-56
2021/07/12 05:26:18;;;;;;;10.25;9.45;;;;;;;;;;5093159;28;24567;-56
2021/07/12 05:28:44;;;;;;;11.70;10.70;;;;;;;;;;5103025;28;24417;-57
2021/07/12 05:31:09;;;;;;;10.53;9.70;;;;;;;;;;5100919;28;24434;-56
2021/07/12 05:33:34;;;;;;;10.70;9.80;;;;;;;;;;5101953;28;24468;-56
2021/07/12 05:35:59;;;;;;;12.83;11.50;;;;;;;;;;5091010;28;24859;-56
2021/07/12 05:38:25;;;;;;;10.93;10.02;;;;;;;;;;5090197;28;25010;-56
2021/07/12 05:40:50;;;;;;;12.73;10.73;;;;;;;;;;5090867;28;24412;-56
2021/07/12 05:43:15;;;;;;;12.25;11.05;;;;;;;;;;5090728;28;24961;-56
2021/07/12 05:45:40;;;;;;;10.60;9.70;;;;;;;;;;5090736;28;24791;-56
2021/07/12 05:48:06;;;;;;;11.20;10.30;;;;;;;;;;5080903;28;24514;-56
2021/07/12 05:50:31;;;;;;;10.18;9.20;;;;;;;;;;5069643;28;25585;-56
2021/07/12 05:52:56;;;;;;;9.60;8.90;;;;;;;;;;5070685;28;24422;-56
2021/07/12 05:55:21;;;;;;;10.43;9.57;;;;;;;;;;5069518;28;24421;-55
2021/07/12 05:57:47;;;;;;;9.80;8.93;;;;;;;;;;5085489;28;24846;-56
2021/07/12 06:00:12;;;;;;;8.90;8.20;;;;;;;;;;5081234;28;24410;-56
2021/07/12 06:02:38;;;;;;;8.70;8.00;;;;;;;;;;5073026;28;24453;-56
2021/07/12 06:05:03;;;;;;;10.30;9.60;;;;;;;;;;5070263;28;24504;-55
2021/07/12 06:07:29;;;;;;;11.40;10.50;;;;;;;;;;5079732;28;24497;-56
2021/07/12 06:09:54;;;;;;;9.70;9.00;;;;;;;;;;5082006;28;24487;-55
2021/07/12 06:12:19;;;;;;;9.07;8.27;;;;;;;;;;5090493;28;24432;-56
2021/07/12 06:14:44;;;;;;;9.88;9.07;;;;;;;;;;5092641;28;24416;-56
2021/07/12 06:17:09;;;;;;;9.20;8.60;;;;;;;;;;5103237;28;24512;-56
2021/07/12 06:19:35;;;;;;;10.50;9.60;;;;;;;;;;5096142;28;24616;-56
2021/07/12 06:22:00;;;;;;;8.27;7.67;;;;;;;;;;5082725;28;24405;-56
2021/07/12 06:24:25;;;;;;;8.65;8.05;;;;;;;;;;5088443;28;24401;-57
2021/07/12 06:26:50;;;;;;;8.93;8.27;;;;;;;;;;5101510;28;24999;-56
2021/07/12 06:29:16;;;;;;;8.65;8.05;;;;;;;;;;5088001;28;24503;-56
2021/07/12 06:31:41;;;;;;;10.23;9.40;;;;;;;;;;5096714;28;24459;-56
2021/07/12 06:34:06;;;;;;;9.53;8.87;;;;;;;;;;5092923;28;24475;-56
2021/07/12 06:36:32;;;;;;;10.00;9.30;;;;;;;;;;5092828;28;24410;-56
2021/07/12 06:38:57;;;;;;;9.30;8.70;;;;;;;;;;5087316;28;24426;-56
2021/07/12 06:41:22;;;;;;;10.23;9.53;;;;;;;;;;5096124;28;25014;-56
2021/07/12 06:43:48;;;;;;;10.55;9.85;;;;;;;;;;5095783;28;24421;-56
2021/07/12 06:46:14;;;;;;;9.73;9.02;;;;;;;;;;5090981;28;24467;-57
2021/07/12 06:48:39;;;;;;;9.77;9.07;;;;;;;;;;5095586;28;24425;-56
2021/07/12 06:51:04;;;;;;;10.48;9.57;;;;;;;;;;5096680;28;24425;-56
2021/07/12 06:53:29;;;;;;;8.20;7.70;;;;;;;;;;5090300;28;24508;-56
2021/07/12 06:55:54;;;;;;;8.50;7.90;;;;;;;;;;5106932;28;24402;-56
2021/07/12 06:58:19;;;;;;;9.00;8.40;;;;;;;;;;5102536;28;24412;-57
2021/07/12 07:00:45;;;;;;;7.10;6.60;;;;;;;;;;5096690;27;24418;-56
2021/07/12 07:03:10;;;;;;;6.80;6.30;;;;;;;;;;5090308;28;24494;-56
2021/07/12 07:05:35;;;;;;;7.00;6.50;;;;;;;;;;5094990;28;24493;-56
2021/07/12 07:08:01;;;;;;;7.00;6.60;;;;;;;;;;5098506;28;24495;-56
2021/07/12 07:10:26;;;;;;;7.20;6.70;;;;;;;;;;5097219;28;24464;-56
2021/07/12 07:12:52;;;;;;;7.33;6.87;;;;;;;;;;5088937;28;24422;-56
2021/07/12 07:15:17;;;;;;;6.70;6.30;;;;;;;;;;5088880;28;24394;-56
2021/07/12 07:17:42;;;;;;;7.60;7.00;;;;;;;;;;5089524;28;24471;-56
2021/07/12 07:20:07;;;;;;;7.30;6.90;;;;;;;;;;5087462;28;24403;-56
2021/07/12 07:22:33;;;;;;;7.40;6.90;;;;;;;;;;5089196;28;24394;-56
2021/07/12 07:24:58;;;;;;;7.80;7.30;;;;;;;;;;5088645;28;24403;-56
2021/07/12 07:27:23;;;;;;;6.70;6.30;;;;;;;;;;5089118;28;24393;-56
2021/07/12 07:29:48;;;;;;;6.80;6.30;;;;;;;;;;5086214;28;24868;-56
2021/07/12 07:32:14;;;;;;;7.67;7.17;;;;;;;;;;5088134;28;24491;-57
2021/07/12 07:34:39;;;;;;;9.03;8.43;;;;;;;;;;5088745;28;24740;-56
2021/07/12 07:37:04;;;;;;;7.70;7.30;;;;;;;;;;5088899;28;24416;-57
2021/07/12 07:39:29;;;;;;;7.47;6.97;;;;;;;;;;5088822;28;24436;-58
2021/07/12 07:41:55;;;;;;;7.20;6.70;;;;;;;;;;5086647;28;24438;-57
2021/07/12 07:44:20;;;;;;;6.70;6.30;;;;;;;;;;5088279;28;24453;-57
2021/07/12 07:46:46;;;;;;;6.97;6.53;;;;;;;;;;5088758;28;25042;-57
2021/07/12 07:49:11;;;;;;;6.10;5.80;;;;;;;;;;5088940;28;24390;-57
2021/07/12 07:51:37;;;;;;;6.30;5.90;;;;;;;;;;5085761;28;24534;-57
2021/07/12 07:54:03;;;;;;;5.65;5.35;;;;;;;;;;5088380;28;24402;-57
2021/07/12 07:56:28;;;;;;;5.40;5.10;;;;;;;;;;5088219;28;24443;-57
2021/07/12 07:58:54;;;;;;;6.60;6.20;;;;;;;;;;5088657;28;24409;-57
2021/07/12 08:01:20;;;;;;;6.07;5.67;;;;;;;;;;5086565;28;24517;-57
2021/07/12 08:03:45;;;;;;;5.40;5.10;;;;;;;;;;5087575;28;24474;-57
2021/07/12 08:06:10;;;;;;;5.40;5.10;;;;;;;;;;5088514;28;24417;-57
2021/07/12 08:08:35;;;;;;;4.67;4.30;;;;;;;;;;5088273;28;24779;-57
2021/07/12 08:11:00;;;;;;;4.77;4.47;;;;;;;;;;5088135;28;24506;-57
2021/07/12 08:13:25;;;;;;;4.60;4.40;;;;;;;;;;5086166;28;24501;-57
2021/07/12 08:15:51;;;;;;;3.90;3.70;;;;;;;;;;5087796;28;24398;-56
2021/07/12 08:18:16;;;;;;;4.37;4.17;;;;;;;;;;5088073;28;24394;-57
2021/07/12 08:20:45;;;;;;;4.47;4.28;;;;;;;;;;5080721;28;24928;-57
2021/07/12 08:23:10;;;;;;;4.40;4.10;;;;;;;;;;5075313;28;24967;-57
2021/07/12 08:25:35;;;;;;;4.20;4.00;;;;;;;;;;5086962;28;24970;-57
2021/07/12 08:28:00;;;;;;;4.20;3.90;;;;;;;;;;5086845;28;25067;-57
2021/07/12 08:30:25;;;;;;;3.50;3.30;;;;;;;;;;5087397;28;24398;-57
2021/07/12 08:32:50;;;;;;;3.60;3.40;;;;;;;;;;5084887;28;24423;-57
2021/07/12 08:35:16;;;;;;;4.30;4.00;;;;;;;;;;5082006;28;25089;-57
2021/07/12 08:37:41;;;;;;;3.90;3.70;;;;;;;;;;5066871;28;24410;-57
2021/07/12 08:40:07;;;;;;;4.20;3.90;;;;;;;;;;5066964;28;24502;-57
2021/07/12 08:42:33;;;;;;;4.25;4.05;;;;;;;;;;5066989;28;24424;-57
2021/07/12 08:44:58;;;;;;;4.27;3.97;;;;;;;;;;5066886;28;24422;-56
2021/07/12 08:47:23;;;;;;;4.70;4.40;;;;;;;;;;5078137;28;24441;-57
2021/07/12 08:49:48;;;;;;;4.60;4.20;;;;;;;;;;5087302;28;24421;-57
2021/07/12 08:52:14;;;;;;;5.10;4.80;;;;;;;;;;5087227;28;24444;-56
2021/07/12 08:54:39;;;;;;;4.70;4.40;;;;;;;;;;5086935;28;24972;-57
2021/07/12 08:57:05;;;;;;;4.70;4.50;;;;;;;;;;5082407;28;24411;-57
2021/07/12 08:59:33;;;;;;;5.90;5.50;;;;;;;;;;5066650;28;24506;-57
2021/07/12 09:02:01;;;;;;;5.00;4.70;;;;;;;;;;5066890;28;25034;-57
2021/07/12 09:04:26;;;;;;;5.80;5.50;;;;;;;;;;5066830;28;24468;-57
2021/07/12 09:06:59;;;;;;;5.30;5.00;;;;;;;;;;5066852;28;24826;-57
2021/07/12 09:09:24;;;;;;;5.28;4.97;;;;;;;;;;5084877;28;24424;-57
2021/07/12 09:11:49;;;;;;;4.70;4.47;;;;;;;;;;5086315;28;24448;-56
2021/07/12 09:14:14;;;;;;;4.93;4.63;;;;;;;;;;5087448;28;25010;-57
2021/07/12 09:16:59;;;;;;;3.83;3.63;;;;;;;;;;5086615;28;25275;-57
2021/07/12 09:19:28;;;;;;;4.30;4.00;;;;;;;;;;5084355;28;25027;-57
2021/07/12 09:22:12;;;;;;;5.15;4.75;;;;;;;;;;5086627;28;25003;-56
2021/07/12 09:24:37;;;;;;;5.50;5.10;;;;;;;;;;5086691;28;24952;-57
2021/07/12 09:27:05;;;;;;;5.93;5.43;;;;;;;;;;5087011;28;24437;-57
2021/07/12 09:29:32;;;;;;;5.90;5.60;;;;;;;;;;5084982;28;24410;-57
2021/07/12 09:31:58;;;;;;;5.60;5.20;;;;;;;;;;5086855;28;24994;-57
2021/07/12 09:34:23;;;;;;;5.20;4.90;;;;;;;;;;5086579;28;24395;-56
2021/07/12 09:36:49;;;;;;;5.90;5.50;;;;;;;;;;5086809;28;24924;-56
2021/07/12 09:39:22;;;;;;;6.30;5.90;;;;;;;;;;5085233;28;24459;-56
2021/07/12 09:41:48;;;;;;;6.65;6.18;;;;;;;;;;5086317;28;24436;-57
2021/07/12 09:44:14;;;;;;;6.70;6.22;;;;;;;;;;5087040;28;24425;-56
2021/07/12 09:46:39;;;;;;;7.55;7.05;;;;;;;;;;5086623;28;24479;-56
2021/07/12 09:49:12;;;;;;;6.90;6.50;;;;;;;;;;5086790;28;24394;-57
2021/07/12 09:51:38;;;;;;;7.13;6.63;;;;;;;;;;5084876;28;24996;-57
2021/07/12 09:54:15;;;;;;;6.32;5.82;;;;;;;;;;5086829;28;25021;-57
2021/07/12 09:56:40;;;;;;;6.03;5.63;;;;;;;;;;5086622;28;24434;-57
2021/07/12 09:59:05;;;;;;;8.70;8.10;;;;;;;;;;5081437;28;25078;-57
2021/07/12 10:01:30;;;;;;;6.83;6.43;;;;;;;;;;5066489;28;24390;-56
2021/07/12 10:03:56;;;;;;;8.10;7.60;;;;;;;;;;5066053;28;24395;-57
2021/07/12 10:06:21;;;;;;;9.20;8.43;;;;;;;;;;5066421;28;24479;-56
2021/07/12 10:08:47;;;;;;;8.93;8.33;;;;;;;;;;5066457;28;24387;-57
2021/07/12 10:11:12;;;;;;;9.30;8.60;;;;;;;;;;5084546;28;24437;-56
2021/07/12 10:13:37;;;;;;;7.90;7.30;;;;;;;;;;5086566;28;24421;-56
2021/07/12 10:16:02;;;;;;;9.20;8.60;;;;;;;;;;5089508;28;24535;-56
2021/07/12 10:18:29;;;;;;;8.60;7.97;;;;;;;;;;5089917;28;24516;-56
2021/07/12 10:20:54;;;;;;;8.50;7.90;;;;;;;;;;5086029;28;24876;-55
2021/07/12 10:23:20;;;;;;;8.00;7.50;;;;;;;;;;5069003;28;25295;-56
2021/07/12 10:25:46;;;;;;;7.68;7.07;;;;;;;;;;5088536;28;24406;-56
2021/07/12 10:28:12;;;;;;;8.60;8.00;;;;;;;;;;5088917;28;24817;-55
2021/07/12 10:30:41;;;;;;;8.00;7.50;;;;;;;;;;5090011;28;24477;-56
2021/07/12 10:33:08;;;;;;;7.72;7.22;;;;;;;;;;5088062;28;24802;-56
2021/07/12 10:35:38;;;;;;;6.78;6.38;;;;;;;;;;5089932;28;24385;-56
2021/07/12 10:38:03;;;;;;;7.63;7.13;;;;;;;;;;5090131;28;24390;-55
2021/07/12 10:40:47;;;;;;;9.15;8.45;;;;;;;;;;5089741;28;24443;-56
2021/07/12 10:43:31;;;;;;;8.48;7.78;;;;;;;;;;5087886;28;24800;-55
2021/07/12 10:45:56;;;;;;;8.00;7.40;;;;;;;;;;5089687;28;24951;-55
2021/07/12 10:48:31;;;;;;;8.75;8.05;;;;;;;;;;5089687;28;24390;-55
2021/07/12 10:50:56;;;;;;;9.85;9.15;;;;;;;;;;5089725;28;24955;-55
2021/07/12 10:53:22;;;;;;;9.40;8.70;;;;;;;;;;5087887;28;24442;-55
2021/07/12 10:56:07;;;;;;;9.50;8.80;;;;;;;;;;5089289;28;24429;-55
2021/07/12 10:58:34;;;;;;;8.20;7.50;;;;;;;;;;5078037;28;24422;-55
2021/07/12 11:01:04;;;;;;;8.10;7.50;;;;;;;;;;5069527;28;24419;-55
2021/07/12 11:03:36;;;;;;;8.27;7.68;;;;;;;;;;5068914;28;24386;-55
2021/07/12 11:06:01;;;;;;;7.65;7.15;;;;;;;;;;5068881;28;24387;-56
2021/07/12 11:09:02;;;;;;;8.70;8.10;;;;;;;;;;5074937;28;24828;-55
2021/07/12 11:11:45;;;;;;;8.57;8.07;;;;;;;;;;5046121;28;24546;-56
2021/07/12 11:14:18;;;;;;;8.70;8.10;;;;;;;;;;5085162;28;24764;-55
2021/07/12 11:16:47;;;;;;;8.20;7.60;;;;;;;;;;5088865;28;24426;-55
2021/07/12 11:19:21;;;;;;;7.65;7.15;;;;;;;;;;5087421;28;24569;-56
2021/07/12 11:21:47;;;;;;;7.57;7.00;;;;;;;;;;5089013;28;24933;-54
2021/07/12 11:24:15;;;;;;;8.20;7.60;;;;;;;;;;5073945;28;24469;-55
2021/07/12 11:26:42;;;;;;;7.50;7.00;;;;;;;;;;5068511;28;24948;-55
2021/07/12 11:29:27;;;;;;;7.60;7.00;;;;;;;;;;5084051;28;24418;-55
2021/07/12 11:31:56;;;;;;;7.40;6.90;;;;;;;;;;5089159;28;24437;-55
2021/07/12 11:34:25;;;;;;;7.47;6.97;;;;;;;;;;5088876;28;24951;-55
2021/07/12 11:36:58;;;;;;;7.80;7.20;;;;;;;;;;5088661;28;24394;-55
2021/07/12 11:39:25;;;;;;;7.20;6.70;;;;;;;;;;5088086;28;24769;-55
2021/07/12 11:41:51;;;;;;;7.32;6.82;;;;;;;;;;5088743;28;24501;-55
2021/07/12 11:44:16;;;;;;;6.63;6.23;;;;;;;;;;5089132;28;24528;-55
2021/07/12 11:46:42;;;;;;;7.50;7.00;;;;;;;;;;5088166;28;25005;-56
2021/07/12 11:49:08;;;;;;;7.38;6.78;;;;;;;;;;5087098;28;24513;-54
2021/07/12 11:51:33;;;;;;;7.10;6.50;;;;;;;;;;5088160;28;24991;-55
2021/07/12 11:53:59;;;;;;;6.97;6.47;;;;;;;;;;5088581;28;24409;-55
2021/07/12 11:56:24;;;;;;;6.30;5.90;;;;;;;;;;5088771;28;24935;-55
2021/07/12 11:58:58;;;;;;;5.83;5.43;;;;;;;;;;5083738;28;24444;-55
2021/07/12 12:01:24;;;;;;;6.32;5.93;;;;;;;;;;5068309;28;24446;-55
2021/07/12 12:03:59;;;;;;;6.33;5.83;;;;;;;;;;5068117;28;24437;-55
2021/07/12 12:06:25;;;;;;;6.00;5.60;;;;;;;;;;5068071;28;24393;-55
2021/07/12 12:08:57;;;;;;;6.53;6.13;;;;;;;;;;5068105;28;24761;-55
2021/07/12 12:11:26;;;;;;;6.78;6.38;;;;;;;;;;5067773;28;24427;-55
2021/07/12 12:13:52;;;;;;;6.20;5.80;;;;;;;;;;5068171;28;24430;-55
2021/07/12 12:16:23;;;;;;;6.30;5.90;;;;;;;;;;5067705;28;24446;-55
2021/07/12 12:18:48;;;;;;;6.03;5.63;;;;;;;;;;5068018;28;24445;-55
2021/07/12 12:21:13;;;;;;;6.20;5.70;;;;;;;;;;5086946;28;24944;-55
2021/07/12 12:23:40;;;;;;;6.20;5.80;;;;;;;;;;5084301;28;24910;-55
2021/07/12 12:26:05;;;;;;;5.53;5.13;;;;;;;;;;5086259;28;24481;-55
2021/07/12 12:28:31;;;;;;;6.40;6.00;;;;;;;;;;5086123;28;24400;-55
2021/07/12 12:30:58;;;;;;;6.50;6.00;;;;;;;;;;5085541;28;24517;-56
2021/07/12 12:33:25;;;;;;;6.50;6.10;;;;;;;;;;5087611;28;24425;-55
2021/07/12 12:35:54;;;;;;;5.85;5.47;;;;;;;;;;5087317;28;25004;-55
2021/07/12 12:38:19;;;;;;;6.50;6.10;;;;;;;;;;5087104;28;24406;-55
2021/07/12 12:40:44;;;;;;;6.57;6.18;;;;;;;;;;5079280;28;24418;-55
2021/07/12 12:43:11;;;;;;;6.73;6.33;;;;;;;;;;5067441;28;24501;-55
2021/07/12 12:45:37;;;;;;;6.15;5.75;;;;;;;;;;5067172;28;24478;-54
2021/07/12 12:48:02;;;;;;;6.40;5.80;;;;;;;;;;5067081;28;24487;-55
2021/07/12 12:50:27;;;;;;;6.60;6.20;;;;;;;;;;5066923;28;24394;-55
2021/07/12 12:53:10;;;;;;;7.10;6.70;;;;;;;;;;5073163;28;24961;-56
2021/07/12 12:55:36;;;;;;;6.80;6.40;;;;;;;;;;5087126;28;24467;-54
2021/07/12 12:58:08;;;;;;;6.10;5.70;;;;;;;;;;5087341;28;24822;-55
2021/07/12 13:00:33;;;;;;;6.20;5.80;;;;;;;;;;5087121;28;24947;-55
2021/07/12 13:02:58;;;;;;;6.60;6.20;;;;;;;;;;5085457;28;24417;-55
2021/07/12 13:05:25;;;;;;;6.75;6.25;;;;;;;;;;5087048;28;24841;-55
2021/07/12 13:07:50;;;;;;;7.20;6.80;;;;;;;;;;5087075;28;24930;-55
2021/07/12 13:10:17;;;;;;;6.90;6.40;;;;;;;;;;5087114;28;24522;-55
2021/07/12 13:13:02;;;;;;;6.40;6.00;;;;;;;;;;5087055;28;24425;-56
2021/07/12 13:15:29;;;;;;;5.40;5.10;;;;;;;;;;5085171;28;24529;-55
2021/07/12 13:17:57;;;;;;;6.40;5.90;;;;;;;;;;5086745;28;24789;-55
2021/07/12 13:20:24;;;;;;;5.72;5.43;;;;;;;;;;5087417;28;24974;-55
2021/07/12 13:22:49;;;;;;;5.53;5.23;;;;;;;;;;5087205;28;24402;-55
2021/07/12 13:25:16;;;;;;;6.00;5.60;;;;;;;;;;5087204;28;24397;-55
2021/07/12 13:27:43;;;;;;;5.50;5.10;;;;;;;;;;5084913;28;24454;-55
2021/07/12 13:30:14;;;;;;;6.30;5.80;;;;;;;;;;5087222;28;24426;-55
2021/07/12 13:32:46;;;;;;;5.85;5.45;;;;;;;;;;5087148;28;24410;-55
2021/07/12 13:35:12;;;;;;;5.37;5.00;;;;;;;;;;5087443;28;24386;-56
2021/07/12 13:37:37;;;;;;;5.20;4.90;;;;;;;;;;5084575;28;24412;-55
2021/07/12 13:40:03;;;;;;;5.55;5.18;;;;;;;;;;5086845;28;24494;-55
2021/07/12 13:42:28;;;;;;;5.25;4.85;;;;;;;;;;5086675;28;25279;-56
2021/07/12 13:44:54;;;;;;;5.00;4.70;;;;;;;;;;5087276;28;24539;-55
2021/07/12 13:47:19;;;;;;;5.20;4.80;;;;;;;;;;5086716;28;24386;-55
2021/07/12 13:49:45;;;;;;;5.50;5.20;;;;;;;;;;5086590;28;24888;-55
2021/07/12 13:52:10;;;;;;;5.40;5.10;;;;;;;;;;5091200;28;24418;-56
2021/07/12 13:54:35;;;;;;;4.90;4.60;;;;;;;;;;5090716;28;24394;-55
2021/07/12 13:57:01;;;;;;;5.70;5.20;;;;;;;;;;5090434;28;24756;-56
2021/07/12 13:59:27;;;;;;;4.90;4.60;;;;;;;;;;5090681;28;24403;-56
2021/07/12 14:01:53;;;;;;;4.95;4.65;;;;;;;;;;5088913;28;24956;-56
2021/07/12 14:04:18;;;;;;;4.90;4.60;;;;;;;;;;5089976;28;24975;-56
2021/07/12 14:06:43;;;;;;;4.32;4.13;;;;;;;;;;5090633;28;24433;-56
2021/07/12 14:09:08;;;;;;;5.40;5.10;;;;;;;;;;5090510;28;24409;-55
2021/07/12 14:11:34;;;;;;;5.50;5.10;;;;;;;;;;5090357;28;24467;-55
2021/07/12 14:13:59;;;;;;;5.20;4.90;;;;;;;;;;5074337;28;24411;-55
2021/07/12 14:16:24;;;;;;;4.80;4.50;;;;;;;;;;5069760;28;24474;-55
2021/07/12 14:18:52;;;;;;;4.90;4.60;;;;;;;;;;5075171;28;24440;-56
2021/07/12 14:21:21;;;;;;;4.75;4.35;;;;;;;;;;5090546;28;24403;-56
2021/07/12 14:23:46;;;;;;;4.65;4.40;;;;;;;;;;5081946;28;24514;-56
2021/07/12 14:26:13;;;;;;;5.00;4.70;;;;;;;;;;5087469;28;24469;-56
2021/07/12 14:28:39;;;;;;;5.83;5.43;;;;;;;;;;5089054;28;24405;-56
2021/07/12 14:31:04;;;;;;;5.63;5.23;;;;;;;;;;5089635;28;24390;-56
2021/07/12 14:33:29;;;;;;;6.00;5.60;;;;;;;;;;5089639;28;24402;-57
2021/07/12 14:35:54;;;;;;;5.07;4.78;;;;;;;;;;5088447;28;24463;-56
2021/07/12 14:38:19;;;;;;;5.35;5.05;;;;;;;;;;5089705;28;24401;-56
2021/07/12 14:40:44;;;;;;;5.25;4.85;;;;;;;;;;5089498;28;24390;-56